createdAt,value
2022-08-18T00:01:11.109Z,20.77
2022-08-18T00:03:56.825Z,20.70
2022-08-18T00:06:24.574Z,20.59
2022-08-18T00:08:56.148Z,20.51
2022-08-18T00:11:23.755Z,20.44
2022-08-18T00:13:50.605Z,20.38
2022-08-18T00:16:17.431Z,20.31
2022-08-18T00:18:44.200Z,20.23
2022-08-18T00:21:10.944Z,20.17
2022-08-18T00:23:38.808Z,20.10
2022-08-18T00:26:05.873Z,20.03
2022-08-18T00:28:32.643Z,19.99
2022-08-18T00:30:59.429Z,19.97
2022-08-18T00:33:26.409Z,19.97
2022-08-18T00:35:53.409Z,19.94
2022-08-18T00:38:24.367Z,19.91
2022-08-18T00:40:52.509Z,19.91
2022-08-18T00:43:27.925Z,19.90
2022-08-18T00:45:54.661Z,19.89
2022-08-18T00:48:23.848Z,19.88
2022-08-18T00:51:03.176Z,19.88
2022-08-18T00:53:45.866Z,19.88
2022-08-18T00:56:16.703Z,19.88
2022-08-18T00:58:49.512Z,19.84
2022-08-18T01:01:16.661Z,19.83
2022-08-18T01:03:43.826Z,19.84
2022-08-18T01:06:17.754Z,19.84
2022-08-18T01:08:44.555Z,19.85
2022-08-18T01:11:11.253Z,19.84
2022-08-18T01:13:39.500Z,19.85
2022-08-18T01:16:26.436Z,19.86
2022-08-18T01:19:11.912Z,19.86
2022-08-18T01:21:53.578Z,19.86
2022-08-18T01:24:45.564Z,19.86
2022-08-18T01:27:18.612Z,19.85
2022-08-18T01:29:46.879Z,19.85
2022-08-18T01:32:19.735Z,19.86
2022-08-18T01:34:48.140Z,19.85
2022-08-18T01:37:16.851Z,19.84
2022-08-18T01:41:11.010Z,19.84
2022-08-18T01:42:30.981Z,19.82
2022-08-18T01:44:57.689Z,19.82
2022-08-18T01:47:24.529Z,19.81
2022-08-18T01:49:53.429Z,19.82
2022-08-18T01:52:21.188Z,19.82
2022-08-18T01:54:48.526Z,19.82
2022-08-18T01:57:16.268Z,19.83
2022-08-18T01:59:43.158Z,19.83
2022-08-18T02:02:18.193Z,19.83
2022-08-18T02:04:45.345Z,19.83
2022-08-18T02:07:12.747Z,19.81
2022-08-18T02:09:39.956Z,19.80
2022-08-18T02:12:07.398Z,19.78
2022-08-18T02:14:35.601Z,19.75
2022-08-18T02:17:03.220Z,19.72
2022-08-18T02:19:38.534Z,19.69
2022-08-18T02:22:05.637Z,19.67
2022-08-18T02:24:32.386Z,19.64
2022-08-18T02:26:59.141Z,19.62
2022-08-18T02:29:25.892Z,19.59
2022-08-18T02:31:52.585Z,19.57
2022-08-18T02:34:19.332Z,19.55
2022-08-18T02:36:46.068Z,19.55
2022-08-18T02:39:12.898Z,19.54
2022-08-18T02:41:39.629Z,19.53
2022-08-18T02:44:07.628Z,19.51
2022-08-18T02:46:34.639Z,19.46
2022-08-18T02:49:01.578Z,19.41
2022-08-18T02:51:28.581Z,19.38
2022-08-18T02:53:55.394Z,19.34
2022-08-18T02:56:40.784Z,19.33
2022-08-18T02:59:10.607Z,19.31
2022-08-18T03:01:39.950Z,19.27
2022-08-18T03:04:07.878Z,19.25
2022-08-18T03:06:36.584Z,19.21
2022-08-18T03:09:04.756Z,19.19
2022-08-18T03:11:31.920Z,19.17
2022-08-18T03:13:59.623Z,19.15
2022-08-18T03:16:26.535Z,19.15
2022-08-18T03:18:53.663Z,19.16
2022-08-18T03:21:23.397Z,19.17
2022-08-18T03:24:00.294Z,19.18
2022-08-18T03:26:28.800Z,19.19
2022-08-18T03:28:55.594Z,19.21
2022-08-18T03:31:23.594Z,19.21
2022-08-18T03:33:51.600Z,19.21
2022-08-18T03:36:21.028Z,19.20
2022-08-18T03:38:50.994Z,19.20
2022-08-18T03:41:43.421Z,19.20
2022-08-18T03:44:10.706Z,19.18
2022-08-18T03:46:37.499Z,19.19
2022-08-18T03:49:04.266Z,19.19
2022-08-18T03:51:34.394Z,19.19
2022-08-18T03:54:01.928Z,19.19
2022-08-18T03:56:33.684Z,19.20
2022-08-18T03:59:03.032Z,19.20
2022-08-18T04:01:32.946Z,19.18
2022-08-18T04:04:02.243Z,19.19
2022-08-18T04:06:45.825Z,19.21
2022-08-18T04:09:14.212Z,19.22
2022-08-18T04:11:44.466Z,19.24
2022-08-18T04:14:15.824Z,19.27
2022-08-18T04:16:42.699Z,19.28
2022-08-18T04:19:10.081Z,19.29
2022-08-18T04:21:38.421Z,19.28
2022-08-18T04:24:05.690Z,19.29
2022-08-18T04:26:33.257Z,19.33
2022-08-18T04:29:02.817Z,19.38
2022-08-18T04:31:31.047Z,19.44
2022-08-18T04:33:58.570Z,19.48
2022-08-18T04:36:25.431Z,19.53
2022-08-18T04:38:52.187Z,19.56
2022-08-18T04:41:27.490Z,19.63
2022-08-18T04:43:58.325Z,19.66
2022-08-18T04:46:26.382Z,19.70
2022-08-18T04:48:58.597Z,19.75
2022-08-18T04:52:38.459Z,19.78
2022-08-18T04:54:13.273Z,19.81
2022-08-18T04:56:40.082Z,19.87
2022-08-18T04:59:12.096Z,19.94
2022-08-18T05:01:42.214Z,20.05
2022-08-18T05:04:09.107Z,20.23
2022-08-18T05:06:36.073Z,20.42
2022-08-18T05:09:04.918Z,20.65
2022-08-18T05:11:33.638Z,20.88
2022-08-18T05:14:01.335Z,21.09
2022-08-18T05:19:42.306Z,21.57
2022-08-18T05:22:11.448Z,21.80
2022-08-18T05:24:41.210Z,22.05
2022-08-18T05:27:08.007Z,22.24
2022-08-18T05:29:45.929Z,22.38
2022-08-18T05:32:38.274Z,22.51
2022-08-18T05:35:10.169Z,22.61
2022-08-18T05:37:47.492Z,22.77
2022-08-18T05:40:14.572Z,22.93
2022-08-18T05:42:41.369Z,23.04
2022-08-18T05:45:12.952Z,23.13
2022-08-18T05:47:39.728Z,23.21
2022-08-18T05:50:09.120Z,23.29
2022-08-18T05:52:51.446Z,23.38
2022-08-18T05:55:49.481Z,23.39
2022-08-18T05:58:19.100Z,23.43
2022-08-18T06:01:02.487Z,23.46
2022-08-18T06:03:45.137Z,23.54
2022-08-18T06:06:21.044Z,23.53
2022-08-18T06:08:58.652Z,23.47
2022-08-18T06:11:25.967Z,23.44
2022-08-18T06:13:59.634Z,23.45
2022-08-18T06:16:48.218Z,23.46
2022-08-18T06:19:40.860Z,23.45
2022-08-18T06:22:25.987Z,23.38
2022-08-18T06:25:06.129Z,23.30
2022-08-18T06:27:55.702Z,23.26
2022-08-18T06:30:56.971Z,23.21
2022-08-18T06:33:50.289Z,23.18
2022-08-18T06:36:50.251Z,23.12
2022-08-18T06:39:30.920Z,23.07
2022-08-18T06:41:57.856Z,23.03
2022-08-18T06:44:34.371Z,23.01
2022-08-18T06:47:19.905Z,22.99
2022-08-18T06:49:54.888Z,22.99
2022-08-18T06:52:22.707Z,22.97
2022-08-18T06:54:51.382Z,22.94
2022-08-18T06:57:25.167Z,22.95
2022-08-18T06:59:56.840Z,22.94
2022-08-18T07:02:52.830Z,22.94
2022-08-18T07:05:29.425Z,22.91
2022-08-18T07:08:15.924Z,22.90
2022-08-18T07:10:50.248Z,22.91
2022-08-18T07:13:27.215Z,22.94
2022-08-18T07:15:55.739Z,22.97
2022-08-18T07:18:25.174Z,23.00
2022-08-18T07:21:01.815Z,23.02
2022-08-18T07:23:30.346Z,23.06
2022-08-18T07:26:11.043Z,23.09
2022-08-18T07:28:45.007Z,23.12
2022-08-18T07:31:17.308Z,23.18
2022-08-18T07:33:48.300Z,23.21
2022-08-18T07:36:15.035Z,23.23
2022-08-18T07:38:48.705Z,23.28
2022-08-18T07:41:20.561Z,23.34
2022-08-18T07:43:53.488Z,23.41
2022-08-18T07:46:31.790Z,23.47
2022-08-18T07:49:01.378Z,23.52
2022-08-18T07:51:47.668Z,23.55
2022-08-18T07:54:48.935Z,23.55
2022-08-18T07:57:25.255Z,23.57
2022-08-18T08:00:05.155Z,23.58
2022-08-18T08:02:50.084Z,23.60
2022-08-18T08:05:35.834Z,23.63
2022-08-18T08:08:11.675Z,23.68
2022-08-18T08:10:45.938Z,23.72
2022-08-18T08:13:36.865Z,23.76
2022-08-18T08:16:44.387Z,23.80
2022-08-18T08:20:08.586Z,23.86
2022-08-18T08:23:01.065Z,23.89
2022-08-18T08:25:47.138Z,23.92
2022-08-18T08:28:16.818Z,23.97
2022-08-18T08:31:37.963Z,23.99
2022-08-18T08:34:20.127Z,24.02
2022-08-18T08:36:47.555Z,24.07
2022-08-18T08:39:21.443Z,24.13
2022-08-18T08:42:30.658Z,24.18
2022-08-18T08:45:28.122Z,24.18
2022-08-18T08:48:09.292Z,24.19
2022-08-18T08:50:43.064Z,24.21
2022-08-18T08:53:38.463Z,24.23
2022-08-18T08:56:09.819Z,24.25
2022-08-18T08:58:54.733Z,24.29
2022-08-18T09:01:27.983Z,24.35
2022-08-18T09:04:27.047Z,24.37
2022-08-18T09:07:05.517Z,24.41
2022-08-18T09:09:56.970Z,24.46
2022-08-18T09:12:41.348Z,24.51
2022-08-18T09:15:15.250Z,24.54
2022-08-18T09:18:15.678Z,24.58
2022-08-18T09:21:12.804Z,24.63
2022-08-18T09:23:41.396Z,24.65
2022-08-18T09:26:39.719Z,24.66
2022-08-18T09:29:27.364Z,24.69
2022-08-18T09:32:18.768Z,24.73
2022-08-18T09:34:48.250Z,24.80
2022-08-18T09:37:24.503Z,24.85
2022-08-18T09:40:14.407Z,24.90
2022-08-18T09:42:59.829Z,24.97
2022-08-18T09:45:33.617Z,25.01
2022-08-18T09:48:03.047Z,25.04
2022-08-18T09:50:36.067Z,25.07
2022-08-18T09:53:52.591Z,25.09
2022-08-18T09:56:58.092Z,25.14
2022-08-18T09:59:34.592Z,25.20
2022-08-18T10:02:28.083Z,25.23
2022-08-18T10:05:20.095Z,25.28
2022-08-18T10:07:50.595Z,25.32
2022-08-18T10:11:00.651Z,25.36
2022-08-18T10:13:38.654Z,25.43
2022-08-18T10:16:14.324Z,25.49
2022-08-18T10:18:46.261Z,25.54
2022-08-18T10:21:18.867Z,25.59
2022-08-18T10:24:32.293Z,25.66
2022-08-18T10:27:02.620Z,25.73
2022-08-18T10:29:31.724Z,25.77
2022-08-18T10:32:01.437Z,25.79
2022-08-18T10:34:28.171Z,25.82
2022-08-18T10:36:59.079Z,25.86
2022-08-18T10:39:41.231Z,25.93
2022-08-18T10:42:30.983Z,26.00
2022-08-18T10:45:33.450Z,26.04
2022-08-18T10:48:16.776Z,26.09
2022-08-18T10:50:51.339Z,26.14
2022-08-18T10:53:44.354Z,26.19
2022-08-18T10:56:11.717Z,26.20
2022-08-18T10:58:42.082Z,26.23
2022-08-18T11:01:14.946Z,26.27
2022-08-18T11:04:01.006Z,26.28
2022-08-18T11:06:43.916Z,26.31
2022-08-18T11:09:11.651Z,26.32
2022-08-18T11:14:42.829Z,26.36
2022-08-18T11:17:36.285Z,26.43
2022-08-18T11:20:09.359Z,26.49
2022-08-18T11:22:36.517Z,26.53
2022-08-18T11:25:19.073Z,26.56
2022-08-18T11:27:47.495Z,26.58
2022-08-18T11:30:15.572Z,26.58
2022-08-18T11:32:55.200Z,26.60
2022-08-18T11:35:29.793Z,26.64
2022-08-18T11:38:00.064Z,26.67
2022-08-18T11:43:41.700Z,26.70
2022-08-18T11:46:29.999Z,26.72
2022-08-18T11:49:13.742Z,26.74
2022-08-18T11:51:54.638Z,26.75
2022-08-18T11:54:23.481Z,26.75
2022-08-18T11:56:51.401Z,26.77
2022-08-18T11:59:52.702Z,26.82
2022-08-18T12:02:19.209Z,26.89
2022-08-18T12:04:50.464Z,26.93
2022-08-18T12:07:20.316Z,26.94
2022-08-18T12:12:44.609Z,26.97
2022-08-18T12:15:17.440Z,26.98
2022-08-18T12:17:52.474Z,27.00
2022-08-18T12:20:20.231Z,27.02
2022-08-18T12:22:47.142Z,27.04
2022-08-18T12:25:16.366Z,27.08
2022-08-18T12:27:51.876Z,27.10
2022-08-18T12:30:19.204Z,27.10
2022-08-18T12:33:04.857Z,27.12
2022-08-18T12:35:32.910Z,27.13
2022-08-18T12:38:03.530Z,27.12
2022-08-18T12:40:40.732Z,27.13
2022-08-18T12:43:07.635Z,27.15
2022-08-18T12:45:34.666Z,27.19
2022-08-18T12:48:04.698Z,27.21
2022-08-18T12:50:36.204Z,27.21
2022-08-18T12:53:04.684Z,27.23
2022-08-18T12:55:34.086Z,27.25
2022-08-18T12:58:01.930Z,27.25
2022-08-18T13:03:15.386Z,27.32
2022-08-18T13:05:42.787Z,27.34
2022-08-18T13:08:30.060Z,27.36
2022-08-18T13:11:14.640Z,27.38
2022-08-18T13:13:42.761Z,27.39
2022-08-18T13:16:09.759Z,27.41
2022-08-18T13:18:43.361Z,27.44
2022-08-18T13:21:12.392Z,27.46
2022-08-18T13:23:39.836Z,27.49
2022-08-18T13:26:09.666Z,27.50
2022-08-18T13:28:51.565Z,27.50
2022-08-18T13:31:23.661Z,27.50
2022-08-18T13:33:56.898Z,27.51
2022-08-18T13:36:26.356Z,27.53
2022-08-18T13:38:55.749Z,27.54
2022-08-18T13:43:51.443Z,27.57
2022-08-18T13:46:19.754Z,27.57
2022-08-18T13:48:59.954Z,27.59
2022-08-18T13:51:27.962Z,27.60
2022-08-18T13:54:17.756Z,27.60
2022-08-18T13:56:42.939Z,27.62
2022-08-18T13:59:20.712Z,27.62
2022-08-18T14:01:51.595Z,27.61
2022-08-18T14:04:20.437Z,27.63
2022-08-18T14:06:56.436Z,27.62
2022-08-18T14:09:36.033Z,27.62
2022-08-18T14:12:15.830Z,27.62
2022-08-18T14:14:52.056Z,27.59
2022-08-18T14:17:20.216Z,27.58
2022-08-18T14:20:10.325Z,27.58
2022-08-18T14:23:00.183Z,27.59
2022-08-18T14:25:46.090Z,27.63
2022-08-18T14:28:12.876Z,27.63
2022-08-18T14:30:39.653Z,27.64
2022-08-18T14:33:07.808Z,27.63
2022-08-18T14:36:06.055Z,27.62
2022-08-18T14:38:25.420Z,27.61
2022-08-18T14:40:52.172Z,27.60
2022-08-18T14:43:22.011Z,27.59
2022-08-18T14:45:53.722Z,27.59
2022-08-18T14:48:27.485Z,27.60
2022-08-18T14:50:55.592Z,27.59
2022-08-18T14:53:23.865Z,27.59
2022-08-18T14:55:52.506Z,27.57
2022-08-18T14:58:20.748Z,27.55
2022-08-18T15:00:53.616Z,27.54
2022-08-18T15:03:30.764Z,27.51
2022-08-18T15:05:58.546Z,27.48
2022-08-18T15:08:26.853Z,27.46
2022-08-18T15:10:54.130Z,27.44
2022-08-18T15:13:20.915Z,27.42
2022-08-18T15:15:53.589Z,27.42
2022-08-18T15:18:22.491Z,27.41
2022-08-18T15:21:10.322Z,27.40
2022-08-18T15:24:05.372Z,27.38
2022-08-18T15:26:46.374Z,27.37
2022-08-18T15:29:18.569Z,27.35
2022-08-18T15:31:50.785Z,27.34
2022-08-18T15:34:20.745Z,27.32
2022-08-18T15:36:47.854Z,27.31
2022-08-18T15:39:14.802Z,27.28
2022-08-18T15:41:45.547Z,27.25
2022-08-18T15:44:14.444Z,27.22
2022-08-18T15:46:41.294Z,27.18
2022-08-18T15:49:15.056Z,27.16
2022-08-18T15:51:42.495Z,27.14
2022-08-18T15:54:12.341Z,27.11
2022-08-18T15:56:43.261Z,27.08
2022-08-18T15:59:10.868Z,27.06
2022-08-18T16:01:42.594Z,27.05
2022-08-18T16:04:10.272Z,27.02
2022-08-18T16:06:37.607Z,26.99
2022-08-18T16:09:05.934Z,26.96
2022-08-18T16:11:33.080Z,26.94
2022-08-18T16:14:00.030Z,26.91
2022-08-18T16:16:35.831Z,26.87
2022-08-18T16:19:04.686Z,26.83
2022-08-18T16:21:31.396Z,26.79
2022-08-18T16:23:58.352Z,26.74
2022-08-18T16:26:25.128Z,26.73
2022-08-18T16:28:52.416Z,26.70
2022-08-18T16:31:24.795Z,26.67
2022-08-18T16:33:55.443Z,26.64
2022-08-18T16:36:25.385Z,26.62
2022-08-18T16:38:53.359Z,26.59
2022-08-18T16:41:20.425Z,26.56
2022-08-18T16:43:47.489Z,26.54
2022-08-18T16:46:21.372Z,26.50
2022-08-18T16:48:49.589Z,26.47
2022-08-18T16:51:17.720Z,26.43
2022-08-18T16:53:46.277Z,26.38
2022-08-18T16:56:17.066Z,26.33
2022-08-18T16:59:02.504Z,26.27
2022-08-18T17:01:50.765Z,26.21
2022-08-18T17:04:20.602Z,26.17
2022-08-18T17:06:48.002Z,26.12
2022-08-18T17:09:15.531Z,26.08
2022-08-18T17:11:51.680Z,26.04
2022-08-18T17:14:20.821Z,25.99
2022-08-18T17:16:49.044Z,25.95
2022-08-18T17:19:15.882Z,25.90
2022-08-18T17:21:43.129Z,25.88
2022-08-18T17:24:11.337Z,25.84
2022-08-18T17:26:56.667Z,25.78
2022-08-18T17:29:48.058Z,25.74
2022-08-18T17:32:24.677Z,25.67
2022-08-18T17:37:12.334Z,25.59
2022-08-18T17:39:43.317Z,25.53
2022-08-18T17:42:29.264Z,25.49
2022-08-18T17:45:05.111Z,25.46
2022-08-18T17:47:38.511Z,25.42
2022-08-18T17:50:28.679Z,25.39
2022-08-18T17:53:00.548Z,25.35
2022-08-18T17:55:30.431Z,25.31
2022-08-18T17:58:06.870Z,25.27
2022-08-18T18:00:33.635Z,25.23
2022-08-18T18:03:00.830Z,25.20
2022-08-18T18:05:32.847Z,25.16
2022-08-18T18:07:59.968Z,25.13
2022-08-18T18:10:27.538Z,25.09
2022-08-18T18:13:11.621Z,25.05
2022-08-18T18:15:40.594Z,25.02
2022-08-18T18:18:41.802Z,24.98
2022-08-18T18:21:14.537Z,24.95
2022-08-18T18:23:43.463Z,24.91
2022-08-18T18:26:34.878Z,24.88
2022-08-18T18:29:12.654Z,24.85
2022-08-18T18:31:40.317Z,24.82
2022-08-18T18:34:23.237Z,24.80
2022-08-18T18:36:54.613Z,24.77
2022-08-18T18:39:23.682Z,24.74
2022-08-18T18:42:14.954Z,24.72
2022-08-18T18:44:49.503Z,24.69
2022-08-18T18:47:24.961Z,24.65
2022-08-18T18:49:59.472Z,24.61
2022-08-18T18:52:41.264Z,24.60
2022-08-18T18:55:18.203Z,24.57
2022-08-18T18:58:07.019Z,24.55
2022-08-18T19:00:54.078Z,24.51
2022-08-18T19:03:22.711Z,24.45
2022-08-18T19:05:50.842Z,24.40
2022-08-18T19:08:33.208Z,24.35
2022-08-18T19:11:07.333Z,24.29
2022-08-18T19:13:39.466Z,24.25
2022-08-18T19:16:24.162Z,24.20
2022-08-18T19:18:59.759Z,24.16
2022-08-18T19:22:03.993Z,24.11
2022-08-18T19:24:27.668Z,24.05
2022-08-18T19:26:59.952Z,24.01
2022-08-18T19:29:30.184Z,23.95
2022-08-18T19:32:06.229Z,23.92
2022-08-18T19:34:44.889Z,23.87
2022-08-18T19:37:50.129Z,23.82
2022-08-18T19:40:18.120Z,23.76
2022-08-18T19:42:54.242Z,23.71
2022-08-18T19:45:35.655Z,23.67
2022-08-18T19:48:07.608Z,23.61
2022-08-18T19:50:47.606Z,23.56
2022-08-18T19:53:39.407Z,23.51
2022-08-18T19:56:43.473Z,23.46
2022-08-18T19:59:27.422Z,23.42
2022-08-18T20:02:21.086Z,23.38
2022-08-18T20:04:57.308Z,23.36
2022-08-18T20:08:01.128Z,23.33
2022-08-18T20:11:08.135Z,23.30
2022-08-18T20:13:43.036Z,23.26
2022-08-18T20:16:14.981Z,23.23
2022-08-18T20:18:42.956Z,23.20
2022-08-18T20:21:46.434Z,23.18
2022-08-18T20:24:38.430Z,23.17
2022-08-18T20:27:36.729Z,23.14
2022-08-18T20:30:26.740Z,23.12
2022-08-18T20:33:10.281Z,23.09
2022-08-18T20:36:03.943Z,23.09
2022-08-18T20:38:35.748Z,23.07
2022-08-18T20:41:27.716Z,23.04
2022-08-18T20:44:01.848Z,23.02
2022-08-18T20:46:43.683Z,23.00
2022-08-18T20:49:28.756Z,22.97
2022-08-18T20:52:04.232Z,22.96
2022-08-18T20:54:58.380Z,22.93
2022-08-18T20:57:26.908Z,22.90
2022-08-18T21:00:14.218Z,22.89
2022-08-18T21:02:41.278Z,22.86
2022-08-18T21:05:16.614Z,22.82
2022-08-18T21:08:10.402Z,22.77
2022-08-18T21:10:37.199Z,22.75
2022-08-18T21:13:04.636Z,22.73
2022-08-18T21:15:38.156Z,22.71
2022-08-18T21:18:21.151Z,22.69
2022-08-18T21:20:49.168Z,22.67
2022-08-18T21:23:24.909Z,22.64
2022-08-18T21:25:53.952Z,22.62
2022-08-18T21:28:21.663Z,22.59
2022-08-18T21:31:42.283Z,22.55
2022-08-18T21:33:52.552Z,22.52
2022-08-18T21:36:20.195Z,22.49
2022-08-18T21:39:05.773Z,22.46
2022-08-18T21:41:33.667Z,22.42
2022-08-18T21:44:07.687Z,22.38
2022-08-18T21:46:34.421Z,22.37
2022-08-18T21:49:02.579Z,22.34
2022-08-18T21:51:31.288Z,22.30
2022-08-18T21:53:58.883Z,22.27
2022-08-18T21:56:30.991Z,22.22
2022-08-18T21:59:18.539Z,22.18
2022-08-18T22:01:53.505Z,22.14
2022-08-18T22:04:28.858Z,22.11
2022-08-18T22:07:34.191Z,22.08
2022-08-18T22:10:37.146Z,22.04
2022-08-18T22:13:22.455Z,21.98
2022-08-18T22:15:49.987Z,21.93
2022-08-18T22:18:16.686Z,21.88
2022-08-18T22:20:59.377Z,21.84
2022-08-18T22:23:51.335Z,21.79
2022-08-18T22:26:22.533Z,21.74
2022-08-18T22:29:01.367Z,21.71
2022-08-18T22:31:33.305Z,21.66
2022-08-18T22:34:07.293Z,21.63
2022-08-18T22:36:38.881Z,21.61
2022-08-18T22:39:08.569Z,21.58
2022-08-18T22:41:35.789Z,21.54
2022-08-18T22:44:05.566Z,21.51
2022-08-18T22:46:33.123Z,21.48
2022-08-18T22:49:00.232Z,21.46
2022-08-18T22:51:28.087Z,21.42
2022-08-18T22:53:55.828Z,21.39
2022-08-18T22:56:34.283Z,21.35
2022-08-18T22:59:05.864Z,21.34
2022-08-18T23:01:45.048Z,21.31
2022-08-18T23:04:11.865Z,21.29
2022-08-18T23:06:38.580Z,21.27
2022-08-18T23:09:05.440Z,21.24
2022-08-18T23:11:32.207Z,21.21
2022-08-18T23:14:04.870Z,21.17
2022-08-18T23:16:32.441Z,21.15
2022-08-18T23:19:03.619Z,21.13
2022-08-18T23:21:34.923Z,21.10
2022-08-18T23:24:06.335Z,21.07
2022-08-18T23:26:34.266Z,21.02
2022-08-18T23:29:01.535Z,21.00
2022-08-18T23:31:30.257Z,20.98
2022-08-18T23:33:57.587Z,20.96
2022-08-18T23:36:24.476Z,20.94
2022-08-18T23:38:51.194Z,20.91
2022-08-18T23:41:17.954Z,20.87
2022-08-18T23:43:48.265Z,20.85
2022-08-18T23:46:22.064Z,20.83
2022-08-18T23:48:50.707Z,20.82
2022-08-18T23:51:29.388Z,20.79
2022-08-18T23:53:58.950Z,20.78
2022-08-18T23:56:27.990Z,20.76
2022-08-18T23:58:56.376Z,20.72
